sensor_id;sensor_type;location;lat;lon;timestamp;P1;durP1;ratioP1;P2;durP2;ratioP2
46835;SDS011;32573;51.290;6.926;2024-03-06T00:01:59;8.00;;;3.47;;
46835;SDS011;32573;51.290;6.926;2024-03-06T00:04:32;7.05;;;3.10;;
46835;SDS011;32573;51.290;6.926;2024-03-06T00:07:01;5.68;;;3.15;;
46835;SDS011;32573;51.290;6.926;2024-03-06T00:09:30;6.15;;;2.90;;
46835;SDS011;32573;51.290;6.926;2024-03-06T00:12:00;6.35;;;3.10;;
46835;SDS011;32573;51.290;6.926;2024-03-06T00:14:30;7.80;;;3.10;;
46835;SDS011;32573;51.290;6.926;2024-03-06T00:16:59;5.72;;;2.92;;
46835;SDS011;32573;51.290;6.926;2024-03-06T00:19:28;5.97;;;3.22;;
46835;SDS011;32573;51.290;6.926;2024-03-06T00:22:00;7.15;;;3.60;;
46835;SDS011;32573;51.290;6.926;2024-03-06T00:24:30;8.65;;;3.50;;
46835;SDS011;32573;51.290;6.926;2024-03-06T00:27:00;7.25;;;3.40;;
46835;SDS011;32573;51.290;6.926;2024-03-06T00:29:28;6.95;;;3.72;;
46835;SDS011;32573;51.290;6.926;2024-03-06T00:32:00;8.77;;;3.45;;
46835;SDS011;32573;51.290;6.926;2024-03-06T00:34:29;6.57;;;3.10;;
46835;SDS011;32573;51.290;6.926;2024-03-06T00:37:01;8.25;;;3.47;;
46835;SDS011;32573;51.290;6.926;2024-03-06T00:39:30;7.13;;;3.60;;
46835;SDS011;32573;51.290;6.926;2024-03-06T00:42:00;6.63;;;3.25;;
46835;SDS011;32573;51.290;6.926;2024-03-06T00:44:31;7.45;;;3.42;;
46835;SDS011;32573;51.290;6.926;2024-03-06T00:47:00;7.28;;;3.17;;
46835;SDS011;32573;51.290;6.926;2024-03-06T00:49:29;7.20;;;3.22;;
46835;SDS011;32573;51.290;6.926;2024-03-06T00:52:01;6.90;;;3.33;;
46835;SDS011;32573;51.290;6.926;2024-03-06T00:54:32;7.97;;;3.70;;
46835;SDS011;32573;51.290;6.926;2024-03-06T00:57:01;7.10;;;3.25;;
46835;SDS011;32573;51.290;6.926;2024-03-06T00:59:30;5.70;;;3.00;;
46835;SDS011;32573;51.290;6.926;2024-03-06T01:01:59;7.05;;;3.03;;
46835;SDS011;32573;51.290;6.926;2024-03-06T01:04:28;7.72;;;3.72;;
46835;SDS011;32573;51.290;6.926;2024-03-06T01:06:58;7.47;;;3.20;;
46835;SDS011;32573;51.290;6.926;2024-03-06T01:09:28;6.35;;;3.20;;
46835;SDS011;32573;51.290;6.926;2024-03-06T01:11:58;8.65;;;3.42;;
46835;SDS011;32573;51.290;6.926;2024-03-06T01:14:27;8.02;;;3.35;;
46835;SDS011;32573;51.290;6.926;2024-03-06T01:16:55;7.80;;;3.22;;
46835;SDS011;32573;51.290;6.926;2024-03-06T01:19:24;6.80;;;3.40;;
46835;SDS011;32573;51.290;6.926;2024-03-06T01:21:53;7.20;;;3.63;;
46835;SDS011;32573;51.290;6.926;2024-03-06T01:24:22;6.93;;;3.30;;
46835;SDS011;32573;51.290;6.926;2024-03-06T01:26:52;6.78;;;3.28;;
46835;SDS011;32573;51.290;6.926;2024-03-06T01:29:21;9.27;;;3.78;;
46835;SDS011;32573;51.290;6.926;2024-03-06T01:31:51;6.18;;;3.13;;
46835;SDS011;32573;51.290;6.926;2024-03-06T01:34:19;7.07;;;3.58;;
46835;SDS011;32573;51.290;6.926;2024-03-06T01:36:49;10.07;;;3.45;;
46835;SDS011;32573;51.290;6.926;2024-03-06T01:39:18;7.43;;;3.80;;
46835;SDS011;32573;51.290;6.926;2024-03-06T01:41:49;7.22;;;3.55;;
46835;SDS011;32573;51.290;6.926;2024-03-06T01:44:20;8.45;;;3.70;;
46835;SDS011;32573;51.290;6.926;2024-03-06T01:46:49;7.78;;;3.95;;
46835;SDS011;32573;51.290;6.926;2024-03-06T01:49:18;7.32;;;3.95;;
46835;SDS011;32573;51.290;6.926;2024-03-06T01:51:58;8.00;;;3.97;;
46835;SDS011;32573;51.290;6.926;2024-03-06T01:54:29;7.80;;;3.80;;
46835;SDS011;32573;51.290;6.926;2024-03-06T01:56:59;8.70;;;4.32;;
46835;SDS011;32573;51.290;6.926;2024-03-06T01:59:32;7.63;;;3.75;;
46835;SDS011;32573;51.290;6.926;2024-03-06T02:02:04;10.25;;;4.38;;
46835;SDS011;32573;51.290;6.926;2024-03-06T02:04:36;7.68;;;3.97;;
46835;SDS011;32573;51.290;6.926;2024-03-06T02:07:07;7.75;;;3.75;;
46835;SDS011;32573;51.290;6.926;2024-03-06T02:09:39;9.15;;;3.92;;
46835;SDS011;32573;51.290;6.926;2024-03-06T02:12:09;8.65;;;3.78;;
46835;SDS011;32573;51.290;6.926;2024-03-06T02:14:40;7.00;;;3.53;;
46835;SDS011;32573;51.290;6.926;2024-03-06T02:17:10;8.23;;;3.90;;
46835;SDS011;32573;51.290;6.926;2024-03-06T02:19:39;7.40;;;3.35;;
46835;SDS011;32573;51.290;6.926;2024-03-06T02:22:11;7.43;;;3.88;;
46835;SDS011;32573;51.290;6.926;2024-03-06T02:24:42;7.68;;;3.92;;
46835;SDS011;32573;51.290;6.926;2024-03-06T02:27:12;8.00;;;3.72;;
46835;SDS011;32573;51.290;6.926;2024-03-06T02:29:43;8.77;;;3.88;;
46835;SDS011;32573;51.290;6.926;2024-03-06T02:32:13;8.48;;;3.70;;
46835;SDS011;32573;51.290;6.926;2024-03-06T02:34:42;7.90;;;3.42;;
46835;SDS011;32573;51.290;6.926;2024-03-06T02:37:12;9.73;;;3.97;;
46835;SDS011;32573;51.290;6.926;2024-03-06T02:39:41;7.93;;;3.80;;
46835;SDS011;32573;51.290;6.926;2024-03-06T02:42:10;8.18;;;3.85;;
46835;SDS011;32573;51.290;6.926;2024-03-06T02:44:40;7.13;;;3.47;;
46835;SDS011;32573;51.290;6.926;2024-03-06T02:47:08;7.63;;;3.75;;
46835;SDS011;32573;51.290;6.926;2024-03-06T02:49:37;8.18;;;3.85;;
46835;SDS011;32573;51.290;6.926;2024-03-06T02:52:08;9.52;;;4.03;;
46835;SDS011;32573;51.290;6.926;2024-03-06T02:54:39;7.72;;;3.58;;
46835;SDS011;32573;51.290;6.926;2024-03-06T02:57:12;8.15;;;3.65;;
46835;SDS011;32573;51.290;6.926;2024-03-06T02:59:42;9.75;;;4.20;;
46835;SDS011;32573;51.290;6.926;2024-03-06T03:02:11;8.77;;;4.10;;
46835;SDS011;32573;51.290;6.926;2024-03-06T03:04:40;8.38;;;3.95;;
46835;SDS011;32573;51.290;6.926;2024-03-06T03:07:09;8.27;;;3.70;;
46835;SDS011;32573;51.290;6.926;2024-03-06T03:09:40;7.82;;;3.65;;
46835;SDS011;32573;51.290;6.926;2024-03-06T03:12:09;8.75;;;3.58;;
46835;SDS011;32573;51.290;6.926;2024-03-06T03:14:39;9.27;;;3.95;;
46835;SDS011;32573;51.290;6.926;2024-03-06T03:17:08;8.05;;;3.78;;
46835;SDS011;32573;51.290;6.926;2024-03-06T03:19:38;8.48;;;3.92;;
46835;SDS011;32573;51.290;6.926;2024-03-06T03:22:07;8.20;;;4.00;;
46835;SDS011;32573;51.290;6.926;2024-03-06T03:24:37;8.32;;;3.85;;
46835;SDS011;32573;51.290;6.926;2024-03-06T03:27:07;7.43;;;4.00;;
46835;SDS011;32573;51.290;6.926;2024-03-06T03:29:36;8.90;;;3.97;;
46835;SDS011;32573;51.290;6.926;2024-03-06T03:32:04;9.75;;;4.53;;
46835;SDS011;32573;51.290;6.926;2024-03-06T03:34:33;8.05;;;3.60;;
46835;SDS011;32573;51.290;6.926;2024-03-06T03:37:03;9.70;;;4.38;;
46835;SDS011;32573;51.290;6.926;2024-03-06T03:39:32;9.60;;;4.10;;
46835;SDS011;32573;51.290;6.926;2024-03-06T03:42:01;11.25;;;4.28;;
46835;SDS011;32573;51.290;6.926;2024-03-06T03:44:32;7.93;;;4.07;;
46835;SDS011;32573;51.290;6.926;2024-03-06T03:47:01;8.77;;;3.53;;
46835;SDS011;32573;51.290;6.926;2024-03-06T03:49:30;9.13;;;3.70;;
46835;SDS011;32573;51.290;6.926;2024-03-06T03:52:00;9.63;;;3.83;;
46835;SDS011;32573;51.290;6.926;2024-03-06T03:54:29;7.10;;;3.50;;
46835;SDS011;32573;51.290;6.926;2024-03-06T03:56:58;7.80;;;3.78;;
46835;SDS011;32573;51.290;6.926;2024-03-06T03:59:27;8.15;;;3.95;;
46835;SDS011;32573;51.290;6.926;2024-03-06T04:01:58;8.52;;;3.85;;
46835;SDS011;32573;51.290;6.926;2024-03-06T04:04:27;9.13;;;3.90;;
46835;SDS011;32573;51.290;6.926;2024-03-06T04:06:56;7.90;;;4.20;;
46835;SDS011;32573;51.290;6.926;2024-03-06T04:09:27;8.57;;;3.90;;
46835;SDS011;32573;51.290;6.926;2024-03-06T04:11:55;7.50;;;4.05;;
46835;SDS011;32573;51.290;6.926;2024-03-06T04:14:26;7.30;;;3.75;;
46835;SDS011;32573;51.290;6.926;2024-03-06T04:16:56;8.50;;;4.10;;
46835;SDS011;32573;51.290;6.926;2024-03-06T04:19:28;8.68;;;3.85;;
46835;SDS011;32573;51.290;6.926;2024-03-06T04:21:57;9.15;;;4.35;;
46835;SDS011;32573;51.290;6.926;2024-03-06T04:24:27;7.45;;;3.53;;
46835;SDS011;32573;51.290;6.926;2024-03-06T04:26:56;8.07;;;3.80;;
46835;SDS011;32573;51.290;6.926;2024-03-06T04:29:25;8.23;;;4.18;;
46835;SDS011;32573;51.290;6.926;2024-03-06T04:31:53;8.70;;;4.00;;
46835;SDS011;32573;51.290;6.926;2024-03-06T04:34:24;8.25;;;3.35;;
46835;SDS011;32573;51.290;6.926;2024-03-06T04:36:54;8.80;;;4.03;;
46835;SDS011;32573;51.290;6.926;2024-03-06T04:39:23;7.80;;;3.60;;
46835;SDS011;32573;51.290;6.926;2024-03-06T04:41:52;9.07;;;3.90;;
46835;SDS011;32573;51.290;6.926;2024-03-06T04:44:21;8.18;;;4.00;;
46835;SDS011;32573;51.290;6.926;2024-03-06T04:46:51;9.20;;;4.10;;
46835;SDS011;32573;51.290;6.926;2024-03-06T04:49:20;9.27;;;4.15;;
46835;SDS011;32573;51.290;6.926;2024-03-06T04:51:50;9.15;;;3.92;;
46835;SDS011;32573;51.290;6.926;2024-03-06T04:54:19;8.73;;;4.05;;
46835;SDS011;32573;51.290;6.926;2024-03-06T04:56:49;8.55;;;4.05;;
46835;SDS011;32573;51.290;6.926;2024-03-06T04:59:18;7.97;;;3.90;;
46835;SDS011;32573;51.290;6.926;2024-03-06T05:01:47;7.68;;;3.83;;
46835;SDS011;32573;51.290;6.926;2024-03-06T05:04:17;10.02;;;4.35;;
46835;SDS011;32573;51.290;6.926;2024-03-06T05:07:04;10.15;;;4.05;;
46835;SDS011;32573;51.290;6.926;2024-03-06T05:09:50;8.13;;;3.70;;
46835;SDS011;32573;51.290;6.926;2024-03-06T05:12:36;7.72;;;3.75;;
46835;SDS011;32573;51.290;6.926;2024-03-06T05:15:23;11.05;;;4.13;;
46835;SDS011;32573;51.290;6.926;2024-03-06T05:18:11;8.30;;;4.18;;
46835;SDS011;32573;51.290;6.926;2024-03-06T05:20:57;9.10;;;4.07;;
46835;SDS011;32573;51.290;6.926;2024-03-06T05:23:45;8.40;;;3.50;;
46835;SDS011;32573;51.290;6.926;2024-03-06T05:26:31;8.15;;;4.05;;
46835;SDS011;32573;51.290;6.926;2024-03-06T05:29:17;8.40;;;3.83;;
46835;SDS011;32573;51.290;6.926;2024-03-06T05:32:05;8.95;;;3.70;;
46835;SDS011;32573;51.290;6.926;2024-03-06T05:34:51;8.20;;;3.85;;
46835;SDS011;32573;51.290;6.926;2024-03-06T05:37:38;7.47;;;3.90;;
46835;SDS011;32573;51.290;6.926;2024-03-06T05:40:25;8.57;;;4.03;;
46835;SDS011;32573;51.290;6.926;2024-03-06T05:43:11;9.55;;;3.75;;
46835;SDS011;32573;51.290;6.926;2024-03-06T05:45:58;7.03;;;3.72;;
46835;SDS011;32573;51.290;6.926;2024-03-06T05:48:45;10.25;;;4.30;;
46835;SDS011;32573;51.290;6.926;2024-03-06T05:51:32;9.77;;;4.65;;
46835;SDS011;32573;51.290;6.926;2024-03-06T05:54:19;9.02;;;4.25;;
46835;SDS011;32573;51.290;6.926;2024-03-06T05:57:07;10.25;;;4.53;;
46835;SDS011;32573;51.290;6.926;2024-03-06T05:59:54;11.60;;;4.45;;
46835;SDS011;32573;51.290;6.926;2024-03-06T06:02:24;10.00;;;4.55;;
46835;SDS011;32573;51.290;6.926;2024-03-06T06:04:53;8.43;;;4.15;;
46835;SDS011;32573;51.290;6.926;2024-03-06T06:07:43;9.85;;;4.40;;
46835;SDS011;32573;51.290;6.926;2024-03-06T06:10:12;8.23;;;3.92;;
46835;SDS011;32573;51.290;6.926;2024-03-06T06:12:45;7.38;;;3.85;;
46835;SDS011;32573;51.290;6.926;2024-03-06T06:15:17;7.90;;;3.70;;
46835;SDS011;32573;51.290;6.926;2024-03-06T06:17:48;9.52;;;4.85;;
46835;SDS011;32573;51.290;6.926;2024-03-06T06:20:19;9.07;;;4.10;;
46835;SDS011;32573;51.290;6.926;2024-03-06T06:22:49;8.85;;;3.80;;
46835;SDS011;32573;51.290;6.926;2024-03-06T06:25:18;10.18;;;4.40;;
46835;SDS011;32573;51.290;6.926;2024-03-06T06:27:48;10.30;;;4.28;;
46835;SDS011;32573;51.290;6.926;2024-03-06T06:30:19;8.73;;;3.88;;
46835;SDS011;32573;51.290;6.926;2024-03-06T06:32:48;8.70;;;4.20;;
46835;SDS011;32573;51.290;6.926;2024-03-06T06:35:17;9.77;;;4.55;;
46835;SDS011;32573;51.290;6.926;2024-03-06T06:37:49;7.93;;;3.90;;
46835;SDS011;32573;51.290;6.926;2024-03-06T06:40:20;8.27;;;4.10;;
46835;SDS011;32573;51.290;6.926;2024-03-06T06:42:56;8.30;;;4.00;;
46835;SDS011;32573;51.290;6.926;2024-03-06T06:45:24;10.27;;;4.30;;
46835;SDS011;32573;51.290;6.926;2024-03-06T06:47:54;10.13;;;4.35;;
46835;SDS011;32573;51.290;6.926;2024-03-06T06:50:24;10.00;;;4.53;;
46835;SDS011;32573;51.290;6.926;2024-03-06T06:52:55;11.18;;;4.95;;
46835;SDS011;32573;51.290;6.926;2024-03-06T06:55:24;12.23;;;5.55;;
46835;SDS011;32573;51.290;6.926;2024-03-06T06:57:53;15.98;;;4.95;;
46835;SDS011;32573;51.290;6.926;2024-03-06T07:00:29;14.93;;;5.88;;
46835;SDS011;32573;51.290;6.926;2024-03-06T07:03:00;13.95;;;5.50;;
46835;SDS011;32573;51.290;6.926;2024-03-06T07:05:30;14.57;;;5.57;;
46835;SDS011;32573;51.290;6.926;2024-03-06T07:08:00;15.02;;;5.95;;
46835;SDS011;32573;51.290;6.926;2024-03-06T07:10:30;16.73;;;6.10;;
46835;SDS011;32573;51.290;6.926;2024-03-06T07:13:01;16.13;;;5.78;;
46835;SDS011;32573;51.290;6.926;2024-03-06T07:15:37;13.23;;;5.38;;
46835;SDS011;32573;51.290;6.926;2024-03-06T07:18:06;15.10;;;5.72;;
46835;SDS011;32573;51.290;6.926;2024-03-06T07:20:36;15.32;;;6.28;;
46835;SDS011;32573;51.290;6.926;2024-03-06T07:23:05;15.07;;;6.15;;
46835;SDS011;32573;51.290;6.926;2024-03-06T07:25:35;16.50;;;5.40;;
46835;SDS011;32573;51.290;6.926;2024-03-06T07:28:05;15.02;;;5.75;;
46835;SDS011;32573;51.290;6.926;2024-03-06T07:30:35;12.50;;;5.50;;
46835;SDS011;32573;51.290;6.926;2024-03-06T07:33:06;16.65;;;5.70;;
46835;SDS011;32573;51.290;6.926;2024-03-06T07:35:36;15.57;;;6.28;;
46835;SDS011;32573;51.290;6.926;2024-03-06T07:38:07;16.42;;;6.05;;
46835;SDS011;32573;51.290;6.926;2024-03-06T07:40:38;14.18;;;5.63;;
46835;SDS011;32573;51.290;6.926;2024-03-06T07:43:10;15.80;;;6.22;;
46835;SDS011;32573;51.290;6.926;2024-03-06T07:45:42;14.70;;;5.75;;
46835;SDS011;32573;51.290;6.926;2024-03-06T07:48:12;12.75;;;5.85;;
46835;SDS011;32573;51.290;6.926;2024-03-06T07:50:43;14.15;;;6.10;;
46835;SDS011;32573;51.290;6.926;2024-03-06T07:53:13;14.05;;;6.05;;
46835;SDS011;32573;51.290;6.926;2024-03-06T07:55:43;16.23;;;6.07;;
46835;SDS011;32573;51.290;6.926;2024-03-06T07:58:12;13.85;;;6.10;;
46835;SDS011;32573;51.290;6.926;2024-03-06T08:00:45;14.00;;;6.65;;
46835;SDS011;32573;51.290;6.926;2024-03-06T08:03:14;19.38;;;6.90;;
46835;SDS011;32573;51.290;6.926;2024-03-06T08:05:43;15.15;;;6.75;;
46835;SDS011;32573;51.290;6.926;2024-03-06T08:08:17;17.98;;;6.47;;
46835;SDS011;32573;51.290;6.926;2024-03-06T08:10:55;17.60;;;6.65;;
46835;SDS011;32573;51.290;6.926;2024-03-06T08:13:24;16.67;;;6.65;;
46835;SDS011;32573;51.290;6.926;2024-03-06T08:15:55;20.42;;;7.32;;
46835;SDS011;32573;51.290;6.926;2024-03-06T08:18:24;19.67;;;6.63;;
46835;SDS011;32573;51.290;6.926;2024-03-06T08:20:54;13.05;;;5.70;;
46835;SDS011;32573;51.290;6.926;2024-03-06T08:23:23;14.57;;;5.78;;
46835;SDS011;32573;51.290;6.926;2024-03-06T08:25:52;19.13;;;7.45;;
46835;SDS011;32573;51.290;6.926;2024-03-06T08:28:22;16.00;;;6.40;;
46835;SDS011;32573;51.290;6.926;2024-03-06T08:30:51;14.35;;;6.15;;
46835;SDS011;32573;51.290;6.926;2024-03-06T08:33:22;15.20;;;6.47;;
46835;SDS011;32573;51.290;6.926;2024-03-06T08:35:52;17.10;;;6.20;;
46835;SDS011;32573;51.290;6.926;2024-03-06T08:38:21;13.18;;;6.18;;
46835;SDS011;32573;51.290;6.926;2024-03-06T08:40:53;16.20;;;6.50;;
46835;SDS011;32573;51.290;6.926;2024-03-06T08:43:23;15.05;;;5.57;;
46835;SDS011;32573;51.290;6.926;2024-03-06T08:45:54;15.73;;;6.45;;
46835;SDS011;32573;51.290;6.926;2024-03-06T08:48:25;13.25;;;6.13;;
46835;SDS011;32573;51.290;6.926;2024-03-06T08:50:57;15.00;;;6.30;;
46835;SDS011;32573;51.290;6.926;2024-03-06T08:53:26;17.52;;;6.63;;
46835;SDS011;32573;51.290;6.926;2024-03-06T08:55:57;13.80;;;6.32;;
46835;SDS011;32573;51.290;6.926;2024-03-06T08:58:29;14.60;;;6.50;;
46835;SDS011;32573;51.290;6.926;2024-03-06T09:01:04;12.70;;;5.72;;
46835;SDS011;32573;51.290;6.926;2024-03-06T09:03:39;16.08;;;5.78;;
46835;SDS011;32573;51.290;6.926;2024-03-06T09:06:10;12.82;;;5.68;;
46835;SDS011;32573;51.290;6.926;2024-03-06T09:08:42;11.63;;;5.18;;
46835;SDS011;32573;51.290;6.926;2024-03-06T09:11:13;10.60;;;5.57;;
46835;SDS011;32573;51.290;6.926;2024-03-06T09:13:43;14.63;;;5.57;;
46835;SDS011;32573;51.290;6.926;2024-03-06T09:16:12;14.60;;;6.10;;
46835;SDS011;32573;51.290;6.926;2024-03-06T09:18:43;14.80;;;5.47;;
46835;SDS011;32573;51.290;6.926;2024-03-06T09:21:12;13.73;;;5.95;;
46835;SDS011;32573;51.290;6.926;2024-03-06T09:23:41;14.50;;;6.00;;
46835;SDS011;32573;51.290;6.926;2024-03-06T09:26:09;11.40;;;5.35;;
46835;SDS011;32573;51.290;6.926;2024-03-06T09:28:39;13.82;;;6.38;;
46835;SDS011;32573;51.290;6.926;2024-03-06T09:31:08;13.30;;;5.05;;
46835;SDS011;32573;51.290;6.926;2024-03-06T09:33:38;12.90;;;5.63;;
46835;SDS011;32573;51.290;6.926;2024-03-06T09:36:10;13.77;;;6.13;;
46835;SDS011;32573;51.290;6.926;2024-03-06T09:38:41;17.58;;;5.78;;
46835;SDS011;32573;51.290;6.926;2024-03-06T09:41:09;15.32;;;5.72;;
46835;SDS011;32573;51.290;6.926;2024-03-06T09:43:40;15.40;;;6.00;;
46835;SDS011;32573;51.290;6.926;2024-03-06T09:46:10;15.40;;;5.90;;
46835;SDS011;32573;51.290;6.926;2024-03-06T09:48:42;13.95;;;6.15;;
46835;SDS011;32573;51.290;6.926;2024-03-06T09:51:20;15.38;;;6.32;;
46835;SDS011;32573;51.290;6.926;2024-03-06T09:53:52;12.38;;;5.60;;
46835;SDS011;32573;51.290;6.926;2024-03-06T09:56:25;16.67;;;6.53;;
46835;SDS011;32573;51.290;6.926;2024-03-06T09:58:55;15.23;;;6.10;;
46835;SDS011;32573;51.290;6.926;2024-03-06T10:01:26;14.30;;;5.93;;
46835;SDS011;32573;51.290;6.926;2024-03-06T10:04:01;15.13;;;6.47;;
46835;SDS011;32573;51.290;6.926;2024-03-06T10:06:48;16.08;;;6.95;;
46835;SDS011;32573;51.290;6.926;2024-03-06T10:09:19;14.45;;;6.93;;
46835;SDS011;32573;51.290;6.926;2024-03-06T10:11:50;14.25;;;6.25;;
46835;SDS011;32573;51.290;6.926;2024-03-06T10:14:23;15.25;;;6.55;;
46835;SDS011;32573;51.290;6.926;2024-03-06T10:16:53;17.02;;;7.93;;
46835;SDS011;32573;51.290;6.926;2024-03-06T10:19:35;16.60;;;6.28;;
46835;SDS011;32573;51.290;6.926;2024-03-06T10:22:09;14.98;;;6.72;;
46835;SDS011;32573;51.290;6.926;2024-03-06T10:24:40;14.00;;;7.05;;
46835;SDS011;32573;51.290;6.926;2024-03-06T10:27:13;17.77;;;7.38;;
46835;SDS011;32573;51.290;6.926;2024-03-06T10:29:44;17.08;;;6.78;;
46835;SDS011;32573;51.290;6.926;2024-03-06T10:32:16;17.60;;;7.45;;
46835;SDS011;32573;51.290;6.926;2024-03-06T10:34:47;17.90;;;7.47;;
46835;SDS011;32573;51.290;6.926;2024-03-06T10:37:17;22.60;;;9.65;;
46835;SDS011;32573;51.290;6.926;2024-03-06T10:39:48;18.98;;;8.02;;
46835;SDS011;32573;51.290;6.926;2024-03-06T10:42:22;18.98;;;8.65;;
46835;SDS011;32573;51.290;6.926;2024-03-06T10:44:53;28.50;;;11.55;;
46835;SDS011;32573;51.290;6.926;2024-03-06T10:47:28;20.10;;;8.13;;
46835;SDS011;32573;51.290;6.926;2024-03-06T10:49:59;21.00;;;8.73;;
46835;SDS011;32573;51.290;6.926;2024-03-06T10:52:30;19.75;;;9.00;;
46835;SDS011;32573;51.290;6.926;2024-03-06T10:55:01;19.45;;;8.60;;
46835;SDS011;32573;51.290;6.926;2024-03-06T10:57:31;21.27;;;9.10;;
46835;SDS011;32573;51.290;6.926;2024-03-06T11:00:02;15.52;;;7.55;;
46835;SDS011;32573;51.290;6.926;2024-03-06T11:02:33;18.60;;;8.15;;
46835;SDS011;32573;51.290;6.926;2024-03-06T11:05:07;15.30;;;7.15;;
46835;SDS011;32573;51.290;6.926;2024-03-06T11:07:43;15.75;;;7.28;;
46835;SDS011;32573;51.290;6.926;2024-03-06T11:10:15;18.33;;;8.27;;
46835;SDS011;32573;51.290;6.926;2024-03-06T11:15:30;16.30;;;6.78;;
46835;SDS011;32573;51.290;6.926;2024-03-06T11:18:11;21.48;;;8.48;;
46835;SDS011;32573;51.290;6.926;2024-03-06T11:21:28;21.38;;;8.93;;
46835;SDS011;32573;51.290;6.926;2024-03-06T11:24:18;19.05;;;7.88;;
46835;SDS011;32573;51.290;6.926;2024-03-06T11:26:55;25.08;;;10.32;;
46835;SDS011;32573;51.290;6.926;2024-03-06T11:29:27;20.25;;;8.43;;
46835;SDS011;32573;51.290;6.926;2024-03-06T11:32:05;16.80;;;8.02;;
46835;SDS011;32573;51.290;6.926;2024-03-06T11:34:38;15.23;;;7.60;;
46835;SDS011;32573;51.290;6.926;2024-03-06T11:37:07;17.48;;;7.78;;
46835;SDS011;32573;51.290;6.926;2024-03-06T11:39:39;20.25;;;8.70;;
46835;SDS011;32573;51.290;6.926;2024-03-06T11:42:12;16.65;;;7.25;;
46835;SDS011;32573;51.290;6.926;2024-03-06T11:44:52;18.25;;;8.38;;
46835;SDS011;32573;51.290;6.926;2024-03-06T11:47:23;16.35;;;7.80;;
46835;SDS011;32573;51.290;6.926;2024-03-06T11:49:52;18.38;;;8.40;;
46835;SDS011;32573;51.290;6.926;2024-03-06T11:52:22;16.42;;;7.82;;
46835;SDS011;32573;51.290;6.926;2024-03-06T11:54:52;19.33;;;8.57;;
46835;SDS011;32573;51.290;6.926;2024-03-06T11:57:22;17.55;;;8.07;;
46835;SDS011;32573;51.290;6.926;2024-03-06T11:59:51;16.90;;;8.30;;
46835;SDS011;32573;51.290;6.926;2024-03-06T12:02:20;21.27;;;10.20;;
46835;SDS011;32573;51.290;6.926;2024-03-06T12:04:50;14.98;;;7.57;;
46835;SDS011;32573;51.290;6.926;2024-03-06T12:07:23;14.07;;;6.85;;
46835;SDS011;32573;51.290;6.926;2024-03-06T12:09:57;12.02;;;6.20;;
46835;SDS011;32573;51.290;6.926;2024-03-06T12:12:29;13.85;;;6.30;;
46835;SDS011;32573;51.290;6.926;2024-03-06T12:14:58;11.65;;;5.28;;
46835;SDS011;32573;51.290;6.926;2024-03-06T12:17:27;11.38;;;5.38;;
46835;SDS011;32573;51.290;6.926;2024-03-06T12:19:56;12.15;;;5.72;;
46835;SDS011;32573;51.290;6.926;2024-03-06T12:22:25;12.80;;;5.40;;
46835;SDS011;32573;51.290;6.926;2024-03-06T12:25:00;11.13;;;5.35;;
46835;SDS011;32573;51.290;6.926;2024-03-06T12:27:31;11.05;;;5.18;;
46835;SDS011;32573;51.290;6.926;2024-03-06T12:30:08;12.32;;;5.38;;
46835;SDS011;32573;51.290;6.926;2024-03-06T12:32:40;9.38;;;4.95;;
46835;SDS011;32573;51.290;6.926;2024-03-06T12:35:12;9.68;;;4.70;;
46835;SDS011;32573;51.290;6.926;2024-03-06T12:37:41;13.52;;;6.03;;
46835;SDS011;32573;51.290;6.926;2024-03-06T12:40:12;11.13;;;5.45;;
46835;SDS011;32573;51.290;6.926;2024-03-06T12:42:41;10.38;;;4.95;;
46835;SDS011;32573;51.290;6.926;2024-03-06T12:45:10;12.38;;;5.63;;
46835;SDS011;32573;51.290;6.926;2024-03-06T12:47:40;9.77;;;4.43;;
46835;SDS011;32573;51.290;6.926;2024-03-06T12:50:11;8.18;;;4.20;;
46835;SDS011;32573;51.290;6.926;2024-03-06T12:52:43;8.60;;;4.10;;
46835;SDS011;32573;51.290;6.926;2024-03-06T12:55:18;9.27;;;4.60;;
46835;SDS011;32573;51.290;6.926;2024-03-06T12:57:48;10.43;;;4.75;;
46835;SDS011;32573;51.290;6.926;2024-03-06T13:00:18;11.45;;;5.25;;
46835;SDS011;32573;51.290;6.926;2024-03-06T13:02:49;10.80;;;5.03;;
46835;SDS011;32573;51.290;6.926;2024-03-06T13:05:20;16.67;;;7.88;;
46835;SDS011;32573;51.290;6.926;2024-03-06T13:07:50;11.52;;;5.47;;
46835;SDS011;32573;51.290;6.926;2024-03-06T13:10:21;13.25;;;6.40;;
46835;SDS011;32573;51.290;6.926;2024-03-06T13:12:51;17.52;;;7.55;;
46835;SDS011;32573;51.290;6.926;2024-03-06T13:15:22;15.30;;;7.68;;
46835;SDS011;32573;51.290;6.926;2024-03-06T13:17:54;19.05;;;8.38;;
46835;SDS011;32573;51.290;6.926;2024-03-06T13:20:23;15.63;;;7.93;;
46835;SDS011;32573;51.290;6.926;2024-03-06T13:22:52;17.15;;;8.13;;
46835;SDS011;32573;51.290;6.926;2024-03-06T13:25:23;12.93;;;5.97;;
46835;SDS011;32573;51.290;6.926;2024-03-06T13:27:51;11.98;;;5.68;;
46835;SDS011;32573;51.290;6.926;2024-03-06T13:30:21;15.10;;;6.55;;
46835;SDS011;32573;51.290;6.926;2024-03-06T13:32:52;10.63;;;5.40;;
46835;SDS011;32573;51.290;6.926;2024-03-06T13:35:21;18.15;;;7.53;;
46835;SDS011;32573;51.290;6.926;2024-03-06T13:37:51;12.25;;;6.00;;
46835;SDS011;32573;51.290;6.926;2024-03-06T13:40:22;9.95;;;5.05;;
46835;SDS011;32573;51.290;6.926;2024-03-06T13:42:54;11.55;;;5.38;;
46835;SDS011;32573;51.290;6.926;2024-03-06T13:45:23;11.23;;;5.32;;
46835;SDS011;32573;51.290;6.926;2024-03-06T13:48:00;10.15;;;5.05;;
46835;SDS011;32573;51.290;6.926;2024-03-06T13:50:30;10.27;;;5.20;;
46835;SDS011;32573;51.290;6.926;2024-03-06T13:52:59;8.95;;;4.45;;
46835;SDS011;32573;51.290;6.926;2024-03-06T13:55:31;9.23;;;4.47;;
46835;SDS011;32573;51.290;6.926;2024-03-06T13:58:01;8.60;;;4.07;;
46835;SDS011;32573;51.290;6.926;2024-03-06T14:00:43;8.27;;;4.03;;
46835;SDS011;32573;51.290;6.926;2024-03-06T14:03:33;6.50;;;3.65;;
46835;SDS011;32573;51.290;6.926;2024-03-06T14:06:17;8.10;;;3.80;;
46835;SDS011;32573;51.290;6.926;2024-03-06T14:08:53;8.23;;;3.60;;
46835;SDS011;32573;51.290;6.926;2024-03-06T14:11:28;8.23;;;3.78;;
46835;SDS011;32573;51.290;6.926;2024-03-06T14:14:06;9.57;;;3.90;;
46835;SDS011;32573;51.290;6.926;2024-03-06T14:16:36;8.05;;;4.63;;
46835;SDS011;32573;51.290;6.926;2024-03-06T14:19:11;11.07;;;4.88;;
46835;SDS011;32573;51.290;6.926;2024-03-06T14:21:43;10.30;;;5.03;;
46835;SDS011;32573;51.290;6.926;2024-03-06T14:24:12;9.10;;;4.40;;
46835;SDS011;32573;51.290;6.926;2024-03-06T14:26:51;9.30;;;4.32;;
46835;SDS011;32573;51.290;6.926;2024-03-06T14:29:29;11.20;;;5.70;;
46835;SDS011;32573;51.290;6.926;2024-03-06T14:32:18;8.82;;;4.45;;
46835;SDS011;32573;51.290;6.926;2024-03-06T14:34:51;11.02;;;5.20;;
46835;SDS011;32573;51.290;6.926;2024-03-06T14:37:30;11.00;;;5.07;;
46835;SDS011;32573;51.290;6.926;2024-03-06T14:40:01;9.80;;;4.70;;
46835;SDS011;32573;51.290;6.926;2024-03-06T14:42:40;10.63;;;5.28;;
46835;SDS011;32573;51.290;6.926;2024-03-06T14:45:24;10.00;;;4.65;;
46835;SDS011;32573;51.290;6.926;2024-03-06T14:47:57;9.10;;;4.63;;
46835;SDS011;32573;51.290;6.926;2024-03-06T14:50:28;11.63;;;5.13;;
46835;SDS011;32573;51.290;6.926;2024-03-06T14:53:07;10.85;;;5.32;;
46835;SDS011;32573;51.290;6.926;2024-03-06T14:55:40;9.90;;;4.45;;
46835;SDS011;32573;51.290;6.926;2024-03-06T14:58:23;12.55;;;6.18;;
46835;SDS011;32573;51.290;6.926;2024-03-06T15:00:56;13.05;;;5.88;;
46835;SDS011;32573;51.290;6.926;2024-03-06T15:03:31;10.20;;;5.07;;
46835;SDS011;32573;51.290;6.926;2024-03-06T15:06:01;10.40;;;5.07;;
46835;SDS011;32573;51.290;6.926;2024-03-06T15:08:33;8.07;;;4.43;;
46835;SDS011;32573;51.290;6.926;2024-03-06T15:11:03;9.07;;;4.78;;
46835;SDS011;32573;51.290;6.926;2024-03-06T15:13:47;8.75;;;4.30;;